createdAt,value
2017-12-10T00:00:20.058Z,338
2017-12-10T00:01:27.274Z,338
2017-12-10T00:02:34.458Z,338
2017-12-10T00:03:41.370Z,338
2017-12-10T00:04:48.556Z,338
2017-12-10T00:05:55.747Z,338
2017-12-10T00:07:02.931Z,338
2017-12-10T00:08:09.577Z,339
2017-12-10T00:09:16.760Z,339
2017-12-10T00:10:23.951Z,339
2017-12-10T00:11:31.134Z,339
2017-12-10T00:12:38.040Z,338
2017-12-10T00:13:44.955Z,338
2017-12-10T00:14:52.062Z,338
2017-12-10T00:15:59.257Z,338
2017-12-10T00:17:06.449Z,338
2017-12-10T00:18:13.846Z,338
2017-12-10T00:19:20.759Z,338
2017-12-10T00:20:27.945Z,338
2017-12-10T00:21:34.858Z,338
2017-12-10T00:22:42.043Z,338
2017-12-10T00:23:49.226Z,339
2017-12-10T00:24:56.409Z,339
2017-12-10T00:26:03.594Z,339
2017-12-10T00:27:10.505Z,338
2017-12-10T00:28:17.409Z,338
2017-12-10T00:29:39.239Z,338
2017-12-10T00:30:46.432Z,337
2017-12-10T00:31:53.615Z,337
2017-12-10T00:33:00.805Z,337
2017-12-10T00:34:07.714Z,337
2017-12-10T00:35:14.896Z,337
2017-12-10T00:36:21.810Z,337
2017-12-10T00:37:29.002Z,336
2017-12-10T00:38:35.907Z,336
2017-12-10T00:39:43.092Z,337
2017-12-10T00:40:50.277Z,337
2017-12-10T00:41:57.183Z,337
2017-12-10T00:43:04.370Z,337
2017-12-10T00:44:11.555Z,337
2017-12-10T00:45:18.739Z,337
2017-12-10T00:46:25.927Z,337
2017-12-10T00:47:33.115Z,337
2017-12-10T00:48:40.060Z,338
2017-12-10T00:49:47.242Z,338
2017-12-10T00:50:54.436Z,337
2017-12-10T00:52:01.624Z,338
2017-12-10T00:53:08.808Z,338
2017-12-10T00:54:15.994Z,338
2017-12-10T00:55:23.184Z,338
2017-12-10T00:56:30.365Z,338
2017-12-10T00:57:36.995Z,339
2017-12-10T00:58:44.175Z,338
2017-12-10T00:59:51.361Z,339
2017-12-10T01:01:13.197Z,339
2017-12-10T01:02:20.323Z,339
2017-12-10T01:03:27.511Z,339
2017-12-10T01:04:34.700Z,339
2017-12-10T01:05:41.886Z,340
2017-12-10T01:06:48.793Z,339
2017-12-10T01:07:55.976Z,340
2017-12-10T01:09:02.886Z,339
2017-12-10T01:10:10.070Z,339
2017-12-10T01:11:17.257Z,339
2017-12-10T01:12:24.441Z,340
2017-12-10T01:13:31.629Z,340
2017-12-10T01:14:38.543Z,340
2017-12-10T01:15:45.736Z,340
2017-12-10T01:16:52.640Z,341
2017-12-10T01:17:59.828Z,341
2017-12-10T01:19:07.023Z,341
2017-12-10T01:20:13.666Z,341
2017-12-10T01:21:20.856Z,341
2017-12-10T01:22:28.047Z,341
2017-12-10T01:23:34.682Z,340
2017-12-10T01:24:41.598Z,341
2017-12-10T01:25:48.510Z,341
2017-12-10T01:26:55.421Z,341
2017-12-10T01:28:02.612Z,341
2017-12-10T01:29:09.792Z,341
2017-12-10T01:30:16.990Z,341
2017-12-10T01:31:24.173Z,341
2017-12-10T01:32:31.356Z,341
2017-12-10T01:33:38.542Z,341
2017-12-10T01:34:45.729Z,340
2017-12-10T01:35:52.920Z,340
2017-12-10T01:36:59.844Z,340
2017-12-10T01:38:07.023Z,339
2017-12-10T01:39:13.935Z,340
2017-12-10T01:40:20.841Z,340
2017-12-10T01:41:28.031Z,340
2017-12-10T01:42:35.214Z,340
2017-12-10T01:43:42.400Z,340
2017-12-10T01:44:49.054Z,340
2017-12-10T01:45:56.246Z,340
2017-12-10T01:47:03.437Z,340
2017-12-10T01:48:10.347Z,340
2017-12-10T01:49:17.532Z,340
2017-12-10T01:50:24.445Z,341
2017-12-10T01:51:31.694Z,341
2017-12-10T01:52:38.881Z,341
2017-12-10T01:53:46.065Z,341
2017-12-10T01:54:53.246Z,342
2017-12-10T01:56:00.437Z,342
2017-12-10T01:57:07.667Z,343
2017-12-10T01:58:14.574Z,343
2017-12-10T01:59:21.483Z,343
2017-12-10T02:00:28.663Z,343
2017-12-10T02:01:35.893Z,343
2017-12-10T02:02:42.530Z,343
2017-12-10T02:03:49.719Z,343
2017-12-10T02:04:56.634Z,343
2017-12-10T02:06:03.267Z,342
2017-12-10T02:07:10.209Z,343
2017-12-10T02:08:17.122Z,342
2017-12-10T02:09:24.304Z,343
2017-12-10T02:10:31.493Z,342
2017-12-10T02:11:38.678Z,343
2017-12-10T02:12:45.586Z,343
2017-12-10T02:13:52.768Z,342
2017-12-10T02:14:59.684Z,342
2017-12-10T02:16:06.868Z,342
2017-12-10T02:17:13.503Z,342
2017-12-10T02:18:20.409Z,341
2017-12-10T02:19:27.329Z,341
2017-12-10T02:20:34.513Z,341
2017-12-10T02:21:41.696Z,341
2017-12-10T02:22:48.600Z,340
2017-12-10T02:23:55.787Z,340
2017-12-10T02:25:02.976Z,340
2017-12-10T02:26:10.165Z,340
2017-12-10T02:27:17.347Z,340
2017-12-10T02:28:23.980Z,340
2017-12-10T02:29:31.162Z,340
2017-12-10T02:30:38.078Z,340
2017-12-10T02:31:45.263Z,340
2017-12-10T02:32:52.175Z,340
2017-12-10T02:33:58.799Z,340
2017-12-10T02:35:05.983Z,340
2017-12-10T02:36:13.168Z,340
2017-12-10T02:37:20.353Z,341
2017-12-10T02:38:27.537Z,341
2017-12-10T02:39:34.721Z,341
2017-12-10T02:40:41.628Z,341
2017-12-10T02:41:48.534Z,341
2017-12-10T02:42:55.717Z,341
2017-12-10T02:44:02.903Z,341
2017-12-10T02:45:10.084Z,341
2017-12-10T02:46:17.271Z,341
2017-12-10T02:47:24.457Z,341
2017-12-10T02:48:31.363Z,341
2017-12-10T02:49:38.544Z,341
2017-12-10T02:50:45.733Z,341
2017-12-10T02:51:52.368Z,341
2017-12-10T02:52:59.556Z,341
2017-12-10T02:54:06.747Z,341
2017-12-10T02:55:13.930Z,340
2017-12-10T02:56:20.897Z,340
2017-12-10T02:57:27.816Z,340
2017-12-10T02:58:34.726Z,340
2017-12-10T02:59:41.910Z,340
2017-12-10T03:00:48.821Z,339
2017-12-10T03:01:56.005Z,339
2017-12-10T03:03:02.911Z,339
2017-12-10T03:04:09.821Z,340
2017-12-10T03:05:17.006Z,340
2017-12-10T03:06:23.925Z,340
2017-12-10T03:07:31.117Z,340
2017-12-10T03:08:38.304Z,340
2017-12-10T03:09:45.490Z,340
2017-12-10T03:10:52.673Z,340
2017-12-10T03:11:59.858Z,340
2017-12-10T03:13:07.046Z,340
2017-12-10T03:14:13.959Z,340
2017-12-10T03:15:21.147Z,340
2017-12-10T03:16:28.331Z,339
2017-12-10T03:17:35.516Z,340
2017-12-10T03:18:42.738Z,339
2017-12-10T03:19:49.923Z,339
2017-12-10T03:20:57.119Z,340
2017-12-10T03:22:03.778Z,339
2017-12-10T03:23:10.966Z,339
2017-12-10T03:24:18.156Z,339
2017-12-10T03:25:25.344Z,338
2017-12-10T03:26:32.530Z,339
2017-12-10T03:27:39.438Z,339
2017-12-10T03:28:46.645Z,339
2017-12-10T03:29:53.831Z,339
2017-12-10T03:31:01.016Z,338
2017-12-10T03:32:08.200Z,339
2017-12-10T03:33:15.384Z,339
2017-12-10T03:34:22.293Z,339
2017-12-10T03:35:29.479Z,339
2017-12-10T03:36:36.672Z,339
2017-12-10T03:37:43.876Z,339
2017-12-10T03:38:50.785Z,339
2017-12-10T03:39:57.691Z,339
2017-12-10T03:41:04.922Z,339
2017-12-10T03:42:12.105Z,339
2017-12-10T03:43:19.012Z,339
2017-12-10T03:44:26.193Z,339
2017-12-10T03:45:33.374Z,339
2017-12-10T03:46:40.280Z,339
2017-12-10T03:47:47.191Z,339
2017-12-10T03:48:54.103Z,339
2017-12-10T03:50:01.281Z,340
2017-12-10T03:51:08.467Z,339
2017-12-10T03:52:15.656Z,339
2017-12-10T03:53:22.282Z,339
2017-12-10T03:54:29.192Z,340
2017-12-10T03:55:35.824Z,339
2017-12-10T03:56:43.004Z,339
2017-12-10T03:57:49.920Z,339
2017-12-10T03:58:57.103Z,339
2017-12-10T04:00:04.284Z,339
2017-12-10T04:01:11.471Z,339
2017-12-10T04:02:18.655Z,339
2017-12-10T04:03:25.577Z,339
2017-12-10T04:04:32.484Z,339
2017-12-10T04:05:39.392Z,339
2017-12-10T04:06:46.299Z,338
2017-12-10T04:07:53.482Z,339
2017-12-10T04:09:00.672Z,339
2017-12-10T04:10:07.857Z,339
2017-12-10T04:11:15.039Z,338
2017-12-10T04:12:22.252Z,338
2017-12-10T04:13:29.432Z,339
2017-12-10T04:14:36.340Z,338
2017-12-10T04:15:43.527Z,338
2017-12-10T04:16:50.704Z,339
2017-12-10T04:17:57.348Z,339
2017-12-10T04:19:04.257Z,338
2017-12-10T04:20:11.441Z,339
2017-12-10T04:21:18.628Z,339
2017-12-10T04:22:25.836Z,339
2017-12-10T04:23:32.744Z,338
2017-12-10T04:24:40.180Z,339
2017-12-10T04:25:47.364Z,338
2017-12-10T04:26:54.273Z,338
2017-12-10T04:28:01.459Z,338
2017-12-10T04:29:08.645Z,338
2017-12-10T04:30:15.557Z,339
2017-12-10T04:31:22.738Z,339
2017-12-10T04:32:29.930Z,338
2017-12-10T04:33:37.124Z,339
2017-12-10T04:34:44.310Z,338
2017-12-10T04:35:51.495Z,339
2017-12-10T04:36:58.679Z,338
2017-12-10T04:38:05.865Z,339
2017-12-10T04:39:12.774Z,339
2017-12-10T04:40:19.676Z,338
2017-12-10T04:41:26.874Z,339
2017-12-10T04:42:33.508Z,338
2017-12-10T04:43:40.417Z,339
2017-12-10T04:44:47.321Z,338
2017-12-10T04:45:54.508Z,339
2017-12-10T04:47:01.690Z,338
2017-12-10T04:48:08.606Z,338
2017-12-10T04:49:30.440Z,339
2017-12-10T04:50:37.626Z,338
2017-12-10T04:51:44.813Z,338
2017-12-10T04:52:51.996Z,338
2017-12-10T04:53:59.199Z,338
2017-12-10T04:55:05.856Z,338
2017-12-10T04:56:12.779Z,338
2017-12-10T04:57:19.696Z,338
2017-12-10T04:58:26.605Z,338
2017-12-10T04:59:33.512Z,339
2017-12-10T05:00:40.744Z,338
2017-12-10T05:01:47.649Z,338
2017-12-10T05:02:54.566Z,339
2017-12-10T05:04:01.750Z,339
2017-12-10T05:05:08.661Z,339
2017-12-10T05:06:15.574Z,340
2017-12-10T05:07:22.759Z,339
2017-12-10T05:08:29.941Z,339
2017-12-10T05:09:37.127Z,339
2017-12-10T05:10:44.316Z,339
2017-12-10T05:11:51.499Z,340
2017-12-10T05:12:58.690Z,340
2017-12-10T05:14:05.878Z,340
2017-12-10T05:15:13.088Z,339
2017-12-10T05:16:20.274Z,340
2017-12-10T05:17:27.460Z,339
2017-12-10T05:18:34.361Z,340
2017-12-10T05:19:41.551Z,339
2017-12-10T05:20:48.462Z,339
2017-12-10T05:21:55.645Z,340
2017-12-10T05:23:02.836Z,339
2017-12-10T05:24:09.747Z,340
2017-12-10T05:25:16.929Z,339
2017-12-10T05:26:24.115Z,340
2017-12-10T05:27:31.300Z,340
2017-12-10T05:28:38.218Z,340
2017-12-10T05:29:45.402Z,340
2017-12-10T05:30:52.588Z,340
2017-12-10T05:31:59.507Z,340
2017-12-10T05:33:06.690Z,340
2017-12-10T05:34:13.355Z,340
2017-12-10T05:35:20.548Z,340
2017-12-10T05:36:27.457Z,340
2017-12-10T05:37:34.641Z,340
2017-12-10T05:38:41.823Z,340
2017-12-10T05:39:48.729Z,340
2017-12-10T05:40:55.635Z,340
2017-12-10T05:42:02.826Z,340
2017-12-10T05:43:09.735Z,340
2017-12-10T05:44:16.914Z,340
2017-12-10T05:45:24.099Z,340
2017-12-10T05:46:30.737Z,340
2017-12-10T05:47:37.924Z,340
2017-12-10T05:48:45.108Z,340
2017-12-10T05:49:52.293Z,340
2017-12-10T05:50:59.492Z,340
2017-12-10T05:52:06.681Z,340
2017-12-10T05:53:13.867Z,339
2017-12-10T05:54:21.061Z,339
2017-12-10T05:55:27.962Z,340
2017-12-10T05:56:35.147Z,339
2017-12-10T05:57:42.336Z,339
2017-12-10T05:58:49.242Z,339
2017-12-10T05:59:56.156Z,339
2017-12-10T06:01:03.372Z,339
2017-12-10T06:02:10.561Z,339
2017-12-10T06:03:17.743Z,339
2017-12-10T06:04:24.929Z,339
2017-12-10T06:05:32.115Z,339
2017-12-10T06:06:39.302Z,339
2017-12-10T06:07:46.486Z,339
2017-12-10T06:08:53.673Z,338
2017-12-10T06:10:00.853Z,339
2017-12-10T06:11:08.039Z,339
2017-12-10T06:12:14.945Z,338
2017-12-10T06:13:22.127Z,338
2017-12-10T06:14:29.311Z,339
2017-12-10T06:15:36.495Z,338
2017-12-10T06:16:43.401Z,338
2017-12-10T06:17:50.581Z,338
2017-12-10T06:18:57.788Z,338
2017-12-10T06:20:04.973Z,338
2017-12-10T06:21:12.158Z,338
2017-12-10T06:22:19.342Z,338
2017-12-10T06:23:26.250Z,338
2017-12-10T06:24:33.160Z,338
2017-12-10T06:25:40.068Z,338
2017-12-10T06:26:47.254Z,338
2017-12-10T06:27:54.162Z,338
2017-12-10T06:29:01.353Z,339
2017-12-10T06:30:08.262Z,338
2017-12-10T06:31:15.175Z,338
2017-12-10T06:32:22.365Z,338
2017-12-10T06:33:29.545Z,338
2017-12-10T06:34:36.937Z,338
2017-12-10T06:35:44.131Z,338
2017-12-10T06:36:51.315Z,338
2017-12-10T06:37:58.503Z,338
2017-12-10T06:39:05.686Z,338
2017-12-10T06:40:12.871Z,338
2017-12-10T06:41:20.058Z,338
2017-12-10T06:42:26.965Z,338
2017-12-10T06:43:34.147Z,338
2017-12-10T06:44:41.336Z,338
2017-12-10T06:45:48.519Z,338
2017-12-10T06:46:55.701Z,338
2017-12-10T06:48:02.606Z,338
2017-12-10T06:49:09.793Z,339
2017-12-10T06:50:16.977Z,339
2017-12-10T06:51:24.162Z,339
2017-12-10T06:52:31.347Z,338
2017-12-10T06:53:38.532Z,339
2017-12-10T06:54:45.442Z,339
2017-12-10T06:55:52.635Z,339
2017-12-10T06:56:59.812Z,339
2017-12-10T06:58:06.719Z,339
2017-12-10T06:59:13.933Z,340
2017-12-10T07:00:20.844Z,339
2017-12-10T07:01:28.032Z,339
2017-12-10T07:02:35.213Z,340
2017-12-10T07:03:42.129Z,340
2017-12-10T07:04:48.767Z,339
2017-12-10T07:05:55.952Z,340
2017-12-10T07:07:03.135Z,339
2017-12-10T07:08:10.322Z,339
2017-12-10T07:09:17.229Z,339
2017-12-10T07:10:24.413Z,339
2017-12-10T07:11:31.322Z,339
2017-12-10T07:12:38.508Z,339
2017-12-10T07:13:45.138Z,339
2017-12-10T07:14:52.044Z,339
2017-12-10T07:15:58.963Z,338
2017-12-10T07:17:05.866Z,338
2017-12-10T07:18:13.090Z,338
2017-12-10T07:19:20.275Z,338
2017-12-10T07:20:27.480Z,337
2017-12-10T07:21:34.109Z,337
2017-12-10T07:22:41.295Z,337
2017-12-10T07:23:47.931Z,337
2017-12-10T07:24:54.840Z,337
2017-12-10T07:26:01.471Z,337
2017-12-10T07:27:08.388Z,337
2017-12-10T07:28:15.577Z,337
2017-12-10T07:29:22.493Z,337
2017-12-10T07:30:29.680Z,337
2017-12-10T07:31:36.588Z,337
2017-12-10T07:32:43.774Z,337
2017-12-10T07:33:50.407Z,337
2017-12-10T07:34:57.590Z,337
2017-12-10T07:36:04.778Z,337
2017-12-10T07:37:11.964Z,337
2017-12-10T07:38:19.154Z,338
2017-12-10T07:39:26.339Z,338
2017-12-10T07:40:33.526Z,338
2017-12-10T07:41:40.710Z,338
2017-12-10T07:42:47.895Z,338
2017-12-10T07:43:54.804Z,339
2017-12-10T07:45:01.722Z,339
2017-12-10T07:46:08.912Z,339
2017-12-10T07:47:16.097Z,339
2017-12-10T07:48:23.283Z,339
2017-12-10T07:49:30.465Z,339
2017-12-10T07:50:37.654Z,339
2017-12-10T07:51:44.841Z,339
2017-12-10T07:52:52.025Z,339
2017-12-10T07:53:59.206Z,338
2017-12-10T07:55:06.390Z,338
2017-12-10T07:56:13.302Z,338
2017-12-10T07:57:20.489Z,338
2017-12-10T07:58:27.678Z,338
2017-12-10T07:59:34.863Z,338
2017-12-10T08:00:41.779Z,338
2017-12-10T08:01:48.966Z,338
2017-12-10T08:02:56.156Z,337
2017-12-10T08:04:03.353Z,337
2017-12-10T08:05:10.532Z,337
2017-12-10T08:06:17.714Z,337
2017-12-10T08:07:24.348Z,337
2017-12-10T08:08:31.532Z,337
2017-12-10T08:09:38.442Z,336
2017-12-10T08:10:45.357Z,336
2017-12-10T08:11:52.547Z,336
2017-12-10T08:12:59.733Z,336
2017-12-10T08:14:06.651Z,336
2017-12-10T08:15:13.838Z,336
2017-12-10T08:16:20.746Z,335
2017-12-10T08:17:27.930Z,336
2017-12-10T08:18:35.114Z,336
2017-12-10T08:19:42.080Z,336
2017-12-10T08:20:49.266Z,335
2017-12-10T08:21:56.452Z,336
2017-12-10T08:23:03.637Z,335
2017-12-10T08:24:10.547Z,335
2017-12-10T08:25:17.455Z,336
2017-12-10T08:26:24.642Z,336
2017-12-10T08:27:31.554Z,336
2017-12-10T08:28:38.740Z,336
2017-12-10T08:29:45.651Z,336
2017-12-10T08:30:52.839Z,336
2017-12-10T08:32:00.027Z,336
2017-12-10T08:33:07.505Z,335
2017-12-10T08:34:14.418Z,335
2017-12-10T08:35:21.606Z,335
2017-12-10T08:36:28.794Z,335
2017-12-10T08:37:35.977Z,335
2017-12-10T08:38:43.161Z,335
2017-12-10T08:39:50.355Z,335
2017-12-10T08:40:57.542Z,334
2017-12-10T08:42:04.731Z,334
2017-12-10T08:43:11.912Z,334
2017-12-10T08:44:19.098Z,334
2017-12-10T08:45:26.282Z,334
2017-12-10T08:46:33.466Z,333
2017-12-10T08:47:40.369Z,334
2017-12-10T08:48:47.294Z,334
2017-12-10T08:49:54.208Z,334
2017-12-10T08:51:01.399Z,334
2017-12-10T08:52:08.310Z,334
2017-12-10T08:53:15.223Z,334
2017-12-10T08:54:22.410Z,334
2017-12-10T08:55:29.595Z,334
2017-12-10T08:56:36.776Z,333
2017-12-10T08:57:43.962Z,334
2017-12-10T08:58:50.878Z,333
2017-12-10T08:59:57.522Z,333
2017-12-10T09:01:04.703Z,333
2017-12-10T09:02:11.916Z,333
2017-12-10T09:03:18.830Z,333
2017-12-10T09:04:25.738Z,334
2017-12-10T09:05:32.953Z,334
2017-12-10T09:06:40.137Z,334
2017-12-10T09:07:47.322Z,333
2017-12-10T09:08:54.228Z,333
2017-12-10T09:10:01.414Z,333
2017-12-10T09:11:08.320Z,333
2017-12-10T09:12:15.504Z,333
2017-12-10T09:13:22.695Z,333
2017-12-10T09:14:29.612Z,333
2017-12-10T09:15:36.522Z,333
2017-12-10T09:16:43.705Z,333
2017-12-10T09:17:51.699Z,333
2017-12-10T09:18:58.882Z,333
2017-12-10T09:20:05.798Z,332
2017-12-10T09:21:12.982Z,332
2017-12-10T09:22:20.173Z,332
2017-12-10T09:23:27.353Z,332
2017-12-10T09:24:34.261Z,332
2017-12-10T09:25:41.447Z,332
2017-12-10T09:26:48.665Z,332
2017-12-10T09:27:55.862Z,332
2017-12-10T09:29:03.046Z,332
2017-12-10T09:30:10.236Z,331
2017-12-10T09:31:17.423Z,331
2017-12-10T09:32:24.621Z,332
2017-12-10T09:33:31.808Z,332
2017-12-10T09:34:38.996Z,332
2017-12-10T09:35:45.909Z,333
2017-12-10T09:36:52.815Z,333
2017-12-10T09:37:59.736Z,332
2017-12-10T09:39:06.918Z,333
2017-12-10T09:40:13.571Z,333
2017-12-10T09:41:20.756Z,333
2017-12-10T09:42:27.668Z,334
2017-12-10T09:43:34.857Z,333
2017-12-10T09:44:42.039Z,333
2017-12-10T09:45:48.962Z,334
2017-12-10T09:46:55.873Z,334
2017-12-10T09:48:02.783Z,334
2017-12-10T09:49:09.966Z,334
2017-12-10T09:50:16.874Z,333
2017-12-10T09:51:24.062Z,334
2017-12-10T09:52:31.249Z,334
2017-12-10T09:53:38.437Z,334
2017-12-10T09:54:45.347Z,334
2017-12-10T09:55:52.263Z,334
2017-12-10T09:56:59.172Z,334
2017-12-10T09:58:06.085Z,333
2017-12-10T09:59:12.993Z,333
2017-12-10T10:00:22.380Z,333
2017-12-10T10:01:29.284Z,333
2017-12-10T10:02:36.194Z,333
2017-12-10T10:03:43.383Z,333
2017-12-10T10:04:50.572Z,333
2017-12-10T10:05:57.478Z,333
2017-12-10T10:07:04.659Z,333
2017-12-10T10:08:11.841Z,333
2017-12-10T10:09:18.478Z,333
2017-12-10T10:10:25.394Z,332
2017-12-10T10:11:32.305Z,332
2017-12-10T10:12:39.498Z,333
2017-12-10T10:13:46.682Z,333
2017-12-10T10:14:53.873Z,333
2017-12-10T10:16:01.060Z,333
2017-12-10T10:17:08.265Z,333
2017-12-10T10:18:15.179Z,333
2017-12-10T10:19:22.368Z,333
2017-12-10T10:20:29.562Z,333
2017-12-10T10:21:36.751Z,333
2017-12-10T10:22:43.659Z,333
2017-12-10T10:23:50.576Z,333
2017-12-10T10:24:57.763Z,332
2017-12-10T10:26:05.018Z,332
2017-12-10T10:27:11.948Z,332
2017-12-10T10:28:19.138Z,331
2017-12-10T10:29:26.325Z,330
2017-12-10T10:30:33.516Z,329
2017-12-10T10:31:40.702Z,330
2017-12-10T10:32:47.898Z,330
2017-12-10T10:33:55.089Z,330
2017-12-10T10:35:02.273Z,331
2017-12-10T10:36:09.454Z,331
2017-12-10T10:37:16.639Z,330
2017-12-10T10:38:23.836Z,331
2017-12-10T10:39:30.756Z,331
2017-12-10T10:40:37.944Z,331
2017-12-10T10:41:44.856Z,332
2017-12-10T10:42:52.038Z,332
2017-12-10T10:43:58.673Z,332
2017-12-10T10:45:05.587Z,333
2017-12-10T10:46:12.570Z,333
2017-12-10T10:47:19.786Z,333
2017-12-10T10:48:26.971Z,334
2017-12-10T10:49:34.160Z,334
2017-12-10T10:50:41.065Z,335
2017-12-10T10:51:48.291Z,335
2017-12-10T10:52:55.475Z,335
2017-12-10T10:54:02.142Z,335
2017-12-10T10:55:09.330Z,335
2017-12-10T10:56:16.516Z,335
2017-12-10T10:57:23.699Z,335
2017-12-10T10:58:30.614Z,335
2017-12-10T10:59:37.519Z,335
2017-12-10T11:00:44.704Z,335
2017-12-10T11:01:51.892Z,335
2017-12-10T11:02:59.079Z,335
2017-12-10T11:04:06.264Z,335
2017-12-10T11:05:13.450Z,335
2017-12-10T11:06:20.369Z,335
2017-12-10T11:07:27.550Z,335
2017-12-10T11:08:34.734Z,335
2017-12-10T11:09:41.921Z,335
2017-12-10T11:10:49.140Z,336
2017-12-10T11:11:56.537Z,336
2017-12-10T11:13:03.728Z,336
2017-12-10T11:14:10.635Z,337
2017-12-10T11:15:17.825Z,337
2017-12-10T11:16:24.734Z,337
2017-12-10T11:17:31.649Z,337
2017-12-10T11:18:38.831Z,337
2017-12-10T11:19:45.849Z,337
2017-12-10T11:20:53.038Z,337
2017-12-10T11:22:00.229Z,337
2017-12-10T11:23:07.411Z,338
2017-12-10T11:24:14.643Z,338
2017-12-10T11:25:21.834Z,339
2017-12-10T11:26:28.747Z,340
2017-12-10T11:27:35.959Z,339
2017-12-10T11:28:43.125Z,340
2017-12-10T11:29:50.308Z,341
2017-12-10T11:30:57.492Z,340
2017-12-10T11:32:04.680Z,341
2017-12-10T11:33:11.594Z,340
2017-12-10T11:34:18.779Z,340
2017-12-10T11:35:25.973Z,340
2017-12-10T11:36:33.160Z,339
2017-12-10T11:37:40.343Z,339
2017-12-10T11:38:47.528Z,339
2017-12-10T11:39:54.160Z,339
2017-12-10T11:41:00.790Z,338
2017-12-10T11:42:07.978Z,338
2017-12-10T11:43:15.165Z,339
2017-12-10T11:44:22.347Z,339
2017-12-10T11:45:29.536Z,339
2017-12-10T11:46:36.722Z,339
2017-12-10T11:47:43.909Z,339
2017-12-10T11:48:51.104Z,339
2017-12-10T11:49:58.291Z,338
2017-12-10T11:51:05.479Z,339
2017-12-10T11:52:12.667Z,339
2017-12-10T11:53:19.851Z,339
2017-12-10T11:54:27.040Z,338
2017-12-10T11:55:33.944Z,339
2017-12-10T11:56:40.860Z,339
2017-12-10T11:57:48.049Z,339
2017-12-10T11:58:54.697Z,338
2017-12-10T12:00:01.889Z,338
2017-12-10T12:01:08.811Z,338
2017-12-10T12:02:16.024Z,338
2017-12-10T12:03:23.223Z,338
2017-12-10T12:04:30.403Z,338
2017-12-10T12:05:37.037Z,339
2017-12-10T12:06:43.680Z,339
2017-12-10T12:07:50.578Z,339
2017-12-10T12:08:57.773Z,339
2017-12-10T12:10:04.680Z,339
2017-12-10T12:11:11.870Z,339
2017-12-10T12:12:18.509Z,339
2017-12-10T12:13:25.420Z,338
2017-12-10T12:14:32.331Z,339
2017-12-10T12:15:39.520Z,338
2017-12-10T12:16:46.701Z,338
2017-12-10T12:17:53.616Z,338
2017-12-10T12:19:00.799Z,338
2017-12-10T12:20:07.715Z,338
2017-12-10T12:21:14.907Z,338
2017-12-10T12:22:21.815Z,338
2017-12-10T12:23:29.001Z,338
2017-12-10T12:24:36.185Z,338
2017-12-10T12:25:43.102Z,339
2017-12-10T12:26:50.287Z,339
2017-12-10T12:27:57.474Z,339
2017-12-10T12:29:04.387Z,339
2017-12-10T12:30:11.309Z,339
2017-12-10T12:31:18.223Z,339
2017-12-10T12:32:25.422Z,338
2017-12-10T12:33:32.335Z,339
2017-12-10T12:34:39.247Z,339
2017-12-10T12:35:46.429Z,339
2017-12-10T12:36:53.629Z,339
2017-12-10T12:38:00.536Z,339
2017-12-10T12:39:07.444Z,339
2017-12-10T12:40:14.628Z,339
2017-12-10T12:41:21.812Z,339
2017-12-10T12:42:29.001Z,339
2017-12-10T12:43:35.916Z,339
2017-12-10T12:44:43.100Z,339
2017-12-10T12:45:50.015Z,339
2017-12-10T12:46:57.198Z,339
2017-12-10T12:48:04.389Z,339
2017-12-10T12:49:11.293Z,339
2017-12-10T12:50:18.484Z,339
2017-12-10T12:51:25.671Z,339
2017-12-10T12:52:32.587Z,339
2017-12-10T12:53:39.502Z,339
2017-12-10T12:54:46.690Z,339
2017-12-10T12:55:53.878Z,339
2017-12-10T12:57:01.061Z,339
2017-12-10T12:58:07.983Z,339
2017-12-10T12:59:15.167Z,339
2017-12-10T13:00:21.801Z,339
2017-12-10T13:01:28.987Z,339
2017-12-10T13:02:35.901Z,339
2017-12-10T13:03:43.085Z,339
2017-12-10T13:04:49.743Z,339
2017-12-10T13:05:56.928Z,339
2017-12-10T13:07:03.843Z,339
2017-12-10T13:08:11.038Z,339
2017-12-10T13:09:18.227Z,339
2017-12-10T13:10:25.410Z,339
2017-12-10T13:11:32.322Z,339
2017-12-10T13:12:39.509Z,339
2017-12-10T13:13:46.695Z,339
2017-12-10T13:14:53.883Z,339
2017-12-10T13:16:01.074Z,339
2017-12-10T13:17:07.983Z,339
2017-12-10T13:18:15.169Z,339
2017-12-10T13:19:22.080Z,339
2017-12-10T13:20:28.713Z,339
2017-12-10T13:21:35.898Z,339
2017-12-10T13:22:42.810Z,339
2017-12-10T13:23:49.453Z,339
2017-12-10T13:24:56.642Z,339
2017-12-10T13:26:03.553Z,339
2017-12-10T13:27:10.465Z,339
2017-12-10T13:28:17.655Z,340
2017-12-10T13:29:24.841Z,339
2017-12-10T13:30:32.034Z,339
2017-12-10T13:31:38.945Z,339
2017-12-10T13:32:46.136Z,339
2017-12-10T13:33:53.325Z,339
2017-12-10T13:35:00.514Z,339
2017-12-10T13:36:07.704Z,339
2017-12-10T13:37:14.893Z,339
2017-12-10T13:38:22.088Z,339
2017-12-10T13:39:29.275Z,339
2017-12-10T13:40:36.464Z,339
2017-12-10T13:41:43.374Z,339
2017-12-10T13:42:50.566Z,339
2017-12-10T13:43:57.757Z,339
2017-12-10T13:45:04.940Z,339
2017-12-10T13:46:12.126Z,340
2017-12-10T13:47:19.320Z,339
2017-12-10T13:48:26.239Z,340
2017-12-10T13:49:33.149Z,339
2017-12-10T13:50:40.331Z,339
2017-12-10T13:51:47.522Z,339
2017-12-10T13:52:54.709Z,339
2017-12-10T13:54:01.897Z,339
2017-12-10T13:55:09.080Z,339
2017-12-10T13:56:15.991Z,339
2017-12-10T13:57:22.905Z,339
2017-12-10T13:58:29.813Z,339
2017-12-10T13:59:36.783Z,339
2017-12-10T14:00:43.970Z,339
2017-12-10T14:01:51.158Z,339
2017-12-10T14:02:57.784Z,339
2017-12-10T14:04:05.019Z,339
2017-12-10T14:05:11.942Z,339
2017-12-10T14:06:19.127Z,339
2017-12-10T14:07:26.314Z,339
2017-12-10T14:08:33.227Z,339
2017-12-10T14:09:40.139Z,339
2017-12-10T14:10:47.053Z,339
2017-12-10T14:11:53.968Z,339
2017-12-10T14:13:01.152Z,339
2017-12-10T14:14:08.380Z,339
2017-12-10T14:15:15.570Z,339
2017-12-10T14:16:22.484Z,339
2017-12-10T14:17:29.392Z,339
2017-12-10T14:18:36.305Z,339
2017-12-10T14:19:43.492Z,339
2017-12-10T14:20:50.679Z,339
2017-12-10T14:21:57.313Z,339
2017-12-10T14:23:04.226Z,339
2017-12-10T14:24:11.142Z,339
2017-12-10T14:25:18.050Z,339
2017-12-10T14:26:24.964Z,339
2017-12-10T14:27:31.327Z,339
2017-12-10T14:28:37.967Z,339
2017-12-10T14:29:45.155Z,339
2017-12-10T14:30:52.066Z,339
2017-12-10T14:31:58.977Z,339
2017-12-10T14:33:06.166Z,338
2017-12-10T14:34:13.350Z,339
2017-12-10T14:35:19.987Z,338
2017-12-10T14:36:26.905Z,338
2017-12-10T14:37:33.814Z,338
2017-12-10T14:38:41.004Z,339
2017-12-10T14:39:47.642Z,338
2017-12-10T14:40:54.551Z,339
2017-12-10T14:42:01.738Z,339
2017-12-10T14:43:08.655Z,339
2017-12-10T14:44:15.841Z,338
2017-12-10T14:45:23.026Z,339
2017-12-10T14:46:30.222Z,339
2017-12-10T14:47:37.410Z,339
2017-12-10T14:48:44.590Z,339
2017-12-10T14:49:51.502Z,339
2017-12-10T14:50:58.689Z,339
2017-12-10T14:52:05.874Z,338
2017-12-10T14:53:12.524Z,339
2017-12-10T14:54:19.706Z,338
2017-12-10T14:55:26.954Z,339
2017-12-10T14:56:33.579Z,339
2017-12-10T14:57:40.494Z,338
2017-12-10T14:58:47.678Z,339
2017-12-10T14:59:54.878Z,339
2017-12-10T15:01:02.066Z,339
2017-12-10T15:02:09.254Z,338
2017-12-10T15:03:15.882Z,338
2017-12-10T15:04:23.066Z,338
2017-12-10T15:05:30.247Z,338
2017-12-10T15:06:37.435Z,338
2017-12-10T15:07:44.621Z,339
2017-12-10T15:08:51.534Z,339
2017-12-10T15:09:58.718Z,339
2017-12-10T15:11:05.903Z,339
2017-12-10T15:12:13.094Z,339
2017-12-10T15:13:20.283Z,338
2017-12-10T15:14:27.474Z,338
2017-12-10T15:15:34.656Z,338
2017-12-10T15:16:41.841Z,338
2017-12-10T15:17:48.753Z,338
2017-12-10T15:18:55.939Z,338
2017-12-10T15:20:02.942Z,338
2017-12-10T15:21:10.122Z,338
2017-12-10T15:22:17.317Z,338
2017-12-10T15:23:24.493Z,338
2017-12-10T15:24:31.685Z,338